Terminal Aerodrome Forecast
Issued by NWS Louisville, KY

Home | Current Version | Previous Version | Text Only | Print | Product List | Glossary On
Versions: 1 2 3 4 5 6 7 8 9 10 11 12 13 14 15 16 17 18
671
FTUS43 KLMK 221135 AAB
TAFSDF
TAF AMD
KSDF 221135Z 2212/2318 04011KT 6SM -SHRA OVC017
     FM221400 04008KT P6SM VCSH OVC015
     FM221700 06005KT P6SM OVC015
     FM230500 11004KT 4SM -SHRA OVC008
     FM230900 18008KT 3SM -SHRA OVC005 WS020/21040KT
     FM231300 19009KT 5SM -SHRA OVC015=

USA.gov is the U.S. government's official web portal to all federal, state and local government web resources and services.